createdAt,value
2022-10-09T00:01:09.702Z,7.38
2022-10-09T00:03:36.971Z,6.28
2022-10-09T00:06:04.012Z,7.35
2022-10-09T00:08:30.813Z,7.77
2022-10-09T00:10:57.773Z,6.28
2022-10-09T00:13:24.610Z,6.30
2022-10-09T00:15:51.430Z,5.07
2022-10-09T00:18:18.793Z,7.50
2022-10-09T00:20:46.136Z,6.53
2022-10-09T00:23:17.553Z,5.57
2022-10-09T00:25:54.991Z,4.13
2022-10-09T00:28:22.565Z,5.85
2022-10-09T00:30:49.644Z,4.93
2022-10-09T00:33:16.533Z,5.27
2022-10-09T00:35:43.412Z,6.05
2022-10-09T00:38:10.672Z,5.28
2022-10-09T00:40:37.978Z,5.57
2022-10-09T00:43:05.313Z,5.32
2022-10-09T00:45:32.150Z,6.77
2022-10-09T00:48:03.470Z,6.18
2022-10-09T00:50:45.110Z,6.75
2022-10-09T00:53:14.051Z,5.47
2022-10-09T00:55:40.893Z,8.32
2022-10-09T00:58:07.714Z,5.40
2022-10-09T01:00:34.534Z,4.30
2022-10-09T01:03:01.670Z,5.20
2022-10-09T01:05:49.293Z,5.75
2022-10-09T01:08:38.669Z,5.53
2022-10-09T01:11:10.249Z,5.33
2022-10-09T01:13:42.590Z,5.10
2022-10-09T01:16:29.332Z,5.95
2022-10-09T01:19:21.228Z,6.45
2022-10-09T01:22:17.690Z,4.05
2022-10-09T01:25:08.091Z,5.33
2022-10-09T01:27:36.031Z,6.03
2022-10-09T01:30:08.493Z,5.72
2022-10-09T01:32:40.051Z,3.90
2022-10-09T01:35:07.244Z,6.35
2022-10-09T01:37:34.169Z,5.73
2022-10-09T01:40:01.100Z,5.10
2022-10-09T01:42:28.091Z,6.70
2022-10-09T01:44:54.975Z,5.75
2022-10-09T01:47:21.954Z,6.53
2022-10-09T01:49:59.336Z,4.77
2022-10-09T01:52:26.189Z,4.72
2022-10-09T01:55:30.569Z,5.75
2022-10-09T01:58:34.391Z,6.30
2022-10-09T02:01:27.235Z,4.50
2022-10-09T02:03:54.169Z,8.70
2022-10-09T02:06:21.069Z,6.30
2022-10-09T02:08:50.254Z,4.35
2022-10-09T02:11:17.199Z,6.25
2022-10-09T02:13:44.854Z,6.70
2022-10-09T02:16:14.465Z,5.50
2022-10-09T02:18:46.511Z,5.65
2022-10-09T02:21:18.674Z,3.78
2022-10-09T02:23:45.610Z,5.97
2022-10-09T02:26:12.451Z,6.32
2022-10-09T02:28:43.863Z,4.83
2022-10-09T02:31:27.643Z,4.53
2022-10-09T02:33:56.335Z,6.35
2022-10-09T02:36:23.171Z,4.70
2022-10-09T02:38:50.035Z,4.13
2022-10-09T02:41:16.893Z,5.43
2022-10-09T02:43:43.770Z,3.83
2022-10-09T02:46:10.689Z,3.92
2022-10-09T02:48:37.614Z,6.90
2022-10-09T02:51:04.550Z,6.07
2022-10-09T02:53:31.656Z,5.23
2022-10-09T02:55:58.512Z,4.45
2022-10-09T02:58:25.371Z,4.82
2022-10-09T03:00:52.890Z,4.15
2022-10-09T03:03:20.131Z,6.47
2022-10-09T03:05:47.209Z,4.70
2022-10-09T03:08:14.174Z,7.53
2022-10-09T03:10:41.131Z,4.13
2022-10-09T03:13:07.950Z,6.70
2022-10-09T03:15:37.769Z,4.25
2022-10-09T03:18:04.734Z,6.50
2022-10-09T03:20:31.572Z,3.50
2022-10-09T03:22:58.409Z,6.10
2022-10-09T03:25:25.310Z,6.03
2022-10-09T03:27:52.169Z,3.15
2022-10-09T03:30:19.031Z,5.73
2022-10-09T03:32:46.135Z,5.03
2022-10-09T03:35:13.209Z,3.95
2022-10-09T03:37:40.110Z,4.95
2022-10-09T03:40:07.309Z,5.28
2022-10-09T03:42:34.149Z,5.40
2022-10-09T03:45:04.571Z,5.07
2022-10-09T03:47:31.973Z,4.53
2022-10-09T03:49:58.789Z,6.80
2022-10-09T03:52:25.772Z,4.80
2022-10-09T03:54:52.590Z,4.50
2022-10-09T03:57:19.491Z,4.53
2022-10-09T03:59:46.331Z,4.80
2022-10-09T04:02:13.246Z,5.95
2022-10-09T04:04:40.110Z,5.45
2022-10-09T04:07:07.073Z,5.83
2022-10-09T04:09:33.893Z,5.80
2022-10-09T04:12:00.772Z,9.75
2022-10-09T04:14:27.610Z,9.85
2022-10-09T04:16:54.493Z,6.30
2022-10-09T04:19:21.329Z,6.83
2022-10-09T04:21:48.189Z,4.32
2022-10-09T04:24:15.150Z,7.25
2022-10-09T04:26:42.012Z,6.60
2022-10-09T04:29:08.857Z,7.63
2022-10-09T04:31:35.759Z,8.27
2022-10-09T04:34:02.693Z,7.38
2022-10-09T04:36:29.574Z,9.35
2022-10-09T04:38:56.454Z,7.05
2022-10-09T04:41:23.290Z,5.18
2022-10-09T04:43:54.490Z,7.00
2022-10-09T04:46:21.332Z,6.22
2022-10-09T04:48:48.292Z,5.55
2022-10-09T04:51:15.733Z,7.97
2022-10-09T04:53:42.892Z,6.72
2022-10-09T04:56:15.972Z,6.97
2022-10-09T04:58:42.971Z,7.32
2022-10-09T05:01:17.965Z,6.22
2022-10-09T05:03:44.971Z,5.82
2022-10-09T05:06:12.250Z,8.43
2022-10-09T05:08:39.460Z,5.90
2022-10-09T05:11:08.170Z,6.07
2022-10-09T05:13:37.033Z,5.53
2022-10-09T05:16:08.927Z,5.93
2022-10-09T05:18:36.035Z,5.88
2022-10-09T05:21:05.993Z,6.00
2022-10-09T05:23:32.971Z,7.25
2022-10-09T05:26:01.853Z,6.63
2022-10-09T05:28:28.800Z,5.38
2022-10-09T05:30:55.670Z,5.72
2022-10-09T05:33:22.693Z,6.43
2022-10-09T05:36:03.669Z,4.90
2022-10-09T05:38:30.571Z,5.35
2022-10-09T05:41:02.116Z,7.82
2022-10-09T05:43:30.511Z,5.22
2022-10-09T05:46:11.192Z,5.03
2022-10-09T05:48:39.372Z,5.07
2022-10-09T05:51:14.110Z,5.75
2022-10-09T05:53:41.332Z,6.18
2022-10-09T05:56:21.294Z,7.90
2022-10-09T05:58:55.211Z,6.87
2022-10-09T06:01:22.986Z,8.85
2022-10-09T06:03:53.611Z,7.13
2022-10-09T06:06:21.225Z,7.28
2022-10-09T06:08:48.150Z,5.95
2022-10-09T06:11:18.911Z,5.47
2022-10-09T06:13:45.874Z,7.55
2022-10-09T06:16:13.725Z,6.70
2022-10-09T06:18:45.461Z,7.15
2022-10-09T06:21:15.332Z,9.00
2022-10-09T06:23:42.212Z,5.63
2022-10-09T06:26:11.275Z,7.60
2022-10-09T06:28:38.315Z,6.47
2022-10-09T06:31:07.549Z,5.70
2022-10-09T06:33:35.652Z,6.03
2022-10-09T06:36:09.800Z,7.30
2022-10-09T06:38:37.449Z,7.93
2022-10-09T06:41:05.210Z,5.22
2022-10-09T06:43:32.330Z,7.22
2022-10-09T06:46:02.998Z,4.38
2022-10-09T06:48:33.719Z,6.97
2022-10-09T06:51:08.631Z,6.10
2022-10-09T06:53:36.570Z,7.85
2022-10-09T06:56:03.629Z,4.68
2022-10-09T06:58:30.532Z,6.28
2022-10-09T07:01:20.282Z,9.07
2022-10-09T07:03:48.769Z,4.70
2022-10-09T07:06:17.291Z,5.70
2022-10-09T07:08:45.632Z,5.35
2022-10-09T07:11:15.050Z,4.68
2022-10-09T07:13:42.510Z,3.87
2022-10-09T07:16:10.456Z,8.88
2022-10-09T07:18:37.770Z,4.95
2022-10-09T07:21:06.493Z,4.50
2022-10-09T07:23:33.570Z,3.97
2022-10-09T07:26:00.535Z,5.63
2022-10-09T07:28:28.351Z,4.47
2022-10-09T07:30:55.691Z,5.35
2022-10-09T07:33:22.575Z,5.63
2022-10-09T07:35:59.989Z,5.05
2022-10-09T07:38:26.893Z,7.60
2022-10-09T07:40:53.972Z,5.65
2022-10-09T07:43:21.312Z,4.95
2022-10-09T07:45:48.242Z,4.57
2022-10-09T07:48:15.230Z,5.93
2022-10-09T07:50:42.150Z,6.73
2022-10-09T07:53:08.952Z,6.35
2022-10-09T07:55:36.460Z,5.05
2022-10-09T07:58:03.315Z,5.10
2022-10-09T08:00:30.129Z,4.13
2022-10-09T08:02:57.059Z,4.17
2022-10-09T08:05:23.972Z,6.10
2022-10-09T08:07:50.831Z,6.10
2022-10-09T08:10:17.733Z,6.85
2022-10-09T08:12:44.571Z,5.70
2022-10-09T08:15:11.493Z,7.30
2022-10-09T08:17:38.373Z,6.43
2022-10-09T08:20:06.190Z,4.35
2022-10-09T08:22:33.149Z,4.88
2022-10-09T08:24:59.993Z,5.95
2022-10-09T08:27:26.810Z,6.53
2022-10-09T08:29:53.611Z,6.20
2022-10-09T08:32:20.432Z,4.82
2022-10-09T08:34:47.590Z,4.15
2022-10-09T08:37:14.553Z,5.30
2022-10-09T08:39:41.396Z,7.20
2022-10-09T08:42:23.274Z,4.53
2022-10-09T08:44:50.471Z,4.90
2022-10-09T08:47:22.620Z,6.82
2022-10-09T08:49:55.256Z,6.20
2022-10-09T08:52:28.393Z,5.67
2022-10-09T08:54:56.212Z,4.95
2022-10-09T08:57:23.612Z,8.20
2022-10-09T08:59:50.471Z,6.72
2022-10-09T09:02:23.536Z,6.80
2022-10-09T09:04:54.975Z,6.87
2022-10-09T09:07:30.809Z,6.40
2022-10-09T09:10:11.231Z,5.10
2022-10-09T09:12:50.834Z,6.25
2022-10-09T09:15:48.226Z,7.15
2022-10-09T09:18:28.095Z,5.73
2022-10-09T09:20:56.430Z,6.72
2022-10-09T09:23:28.574Z,4.72
2022-10-09T09:25:55.492Z,5.18
2022-10-09T09:28:29.571Z,4.85
2022-10-09T09:31:30.552Z,4.70
2022-10-09T09:34:21.052Z,6.85
2022-10-09T09:36:58.150Z,6.45
2022-10-09T09:40:31.317Z,5.28
2022-10-09T09:42:18.612Z,6.93
2022-10-09T09:44:49.972Z,4.97
2022-10-09T09:47:35.593Z,4.68
2022-10-09T09:50:03.493Z,5.10
2022-10-09T09:52:35.209Z,4.82
2022-10-09T09:55:02.052Z,4.63
2022-10-09T09:57:36.751Z,6.23
2022-10-09T10:00:08.774Z,5.95
2022-10-09T10:02:35.592Z,3.92
2022-10-09T10:05:14.869Z,5.47
2022-10-09T10:07:41.750Z,6.93
2022-10-09T10:10:21.003Z,6.90
2022-10-09T10:12:57.514Z,5.10
2022-10-09T10:15:32.472Z,5.47
2022-10-09T10:18:06.832Z,8.13
2022-10-09T10:20:42.211Z,6.25
2022-10-09T10:23:27.393Z,4.70
2022-10-09T10:25:55.515Z,6.93
2022-10-09T10:28:28.601Z,3.63
2022-10-09T10:30:55.949Z,3.67
2022-10-09T10:33:25.120Z,4.85
2022-10-09T10:35:52.859Z,2.93
2022-10-09T10:38:31.692Z,6.13
2022-10-09T10:41:22.270Z,5.13
2022-10-09T10:43:50.292Z,6.63
2022-10-09T10:46:39.952Z,3.67
2022-10-09T10:49:07.811Z,4.87
2022-10-09T10:51:58.152Z,4.88
2022-10-09T10:54:36.529Z,4.68
2022-10-09T10:57:10.650Z,6.22
2022-10-09T10:59:39.577Z,4.43
2022-10-09T11:02:41.146Z,3.37
2022-10-09T11:05:16.886Z,3.97
2022-10-09T11:07:55.514Z,7.88
2022-10-09T11:10:32.769Z,5.40
2022-10-09T11:13:11.872Z,3.22
2022-10-09T11:15:57.167Z,8.17
2022-10-09T11:18:33.753Z,10.68
2022-10-09T11:21:22.478Z,13.35
2022-10-09T11:24:05.710Z,11.27
2022-10-09T11:26:41.452Z,8.13
2022-10-09T11:29:18.555Z,8.23
2022-10-09T11:31:50.792Z,6.85
2022-10-09T11:34:21.655Z,6.50
2022-10-09T11:36:48.511Z,7.25
2022-10-09T11:39:18.523Z,4.38
2022-10-09T11:41:46.888Z,5.57
2022-10-09T11:44:38.571Z,6.63
2022-10-09T11:47:35.631Z,26.88
2022-10-09T11:50:11.110Z,40.83
2022-10-09T11:53:02.495Z,40.50
2022-10-09T11:55:31.016Z,28.63
2022-10-09T11:58:18.070Z,21.95
2022-10-09T12:00:45.016Z,38.35
2022-10-09T12:03:30.113Z,39.08
2022-10-09T12:06:06.771Z,23.50
2022-10-09T12:08:33.721Z,19.60
2022-10-09T12:11:11.827Z,22.77
2022-10-09T12:13:45.066Z,21.67
2022-10-09T12:16:32.228Z,20.45
2022-10-09T12:19:00.189Z,18.30
2022-10-09T12:21:29.752Z,11.77
2022-10-09T12:23:56.652Z,9.55
2022-10-09T12:26:24.377Z,11.43
2022-10-09T12:28:55.975Z,6.72
2022-10-09T12:31:32.479Z,6.45
2022-10-09T12:34:16.293Z,5.07
2022-10-09T12:36:43.192Z,5.32
2022-10-09T12:39:20.737Z,3.92
2022-10-09T12:41:48.171Z,4.47
2022-10-09T12:44:31.032Z,7.82
2022-10-09T12:47:05.831Z,6.70
2022-10-09T12:49:32.732Z,7.95
2022-10-09T12:51:59.991Z,5.90
2022-10-09T12:54:27.594Z,7.28
2022-10-09T12:56:55.890Z,6.47
2022-10-09T12:59:23.016Z,8.53
2022-10-09T13:01:50.456Z,7.18
2022-10-09T13:04:31.476Z,8.15
2022-10-09T13:07:06.034Z,7.10
2022-10-09T13:09:39.172Z,8.20
2022-10-09T13:12:07.212Z,8.67
2022-10-09T13:14:42.571Z,6.55
2022-10-09T13:17:29.258Z,7.47
2022-10-09T13:19:57.651Z,6.18
2022-10-09T13:22:26.351Z,7.53
2022-10-09T13:24:54.703Z,7.60
2022-10-09T13:27:26.265Z,4.97
2022-10-09T13:29:53.411Z,5.88
2022-10-09T13:32:20.331Z,6.57
2022-10-09T13:34:47.513Z,4.18
2022-10-09T13:37:15.534Z,4.53
2022-10-09T13:39:42.498Z,4.55
2022-10-09T13:42:11.912Z,8.57
2022-10-09T13:44:38.796Z,8.02
2022-10-09T13:47:05.632Z,7.65
2022-10-09T13:49:32.475Z,6.73
2022-10-09T13:51:59.414Z,7.32
2022-10-09T13:54:26.252Z,8.20
2022-10-09T13:56:53.131Z,8.90
2022-10-09T13:59:20.094Z,5.70
2022-10-09T14:01:47.087Z,6.43
2022-10-09T14:04:13.989Z,9.45
2022-10-09T14:06:40.832Z,7.60
2022-10-09T14:09:07.996Z,7.38
2022-10-09T14:11:34.915Z,7.78
2022-10-09T14:14:01.784Z,7.00
2022-10-09T14:16:29.181Z,6.78
2022-10-09T14:18:57.047Z,7.40
2022-10-09T14:21:23.828Z,7.72
2022-10-09T14:23:58.541Z,6.95
2022-10-09T14:26:26.002Z,6.10
2022-10-09T14:28:53.580Z,7.22
2022-10-09T14:31:20.666Z,6.53
2022-10-09T14:33:47.858Z,8.63
2022-10-09T14:36:16.611Z,10.38
2022-10-09T14:38:43.477Z,6.73
2022-10-09T14:41:10.347Z,9.45
2022-10-09T14:43:37.358Z,7.03
2022-10-09T14:46:09.210Z,8.18
2022-10-09T14:48:36.056Z,7.15
2022-10-09T14:51:04.815Z,8.30
2022-10-09T14:53:31.815Z,6.95
2022-10-09T14:56:02.621Z,7.82
2022-10-09T14:58:30.910Z,11.27
2022-10-09T15:00:57.996Z,9.85
2022-10-09T15:03:25.671Z,11.00
2022-10-09T15:05:52.651Z,13.38
2022-10-09T15:08:19.471Z,16.80
2022-10-09T15:10:46.427Z,15.32
2022-10-09T15:13:13.234Z,18.10
2022-10-09T15:15:40.069Z,19.23
2022-10-09T15:18:07.050Z,18.35
2022-10-09T15:20:33.961Z,16.60
2022-10-09T15:23:00.875Z,16.55
2022-10-09T15:25:31.795Z,17.83
2022-10-09T15:28:00.940Z,16.13
2022-10-09T15:30:28.612Z,16.10
2022-10-09T15:32:56.372Z,15.00
2022-10-09T15:35:23.439Z,11.15
2022-10-09T15:37:53.712Z,12.30
2022-10-09T15:40:22.557Z,11.80
2022-10-09T15:42:49.775Z,11.20
2022-10-09T15:45:16.830Z,10.27
2022-10-09T15:47:51.516Z,9.70
2022-10-09T15:50:18.511Z,12.30
2022-10-09T15:52:45.333Z,8.90
2022-10-09T15:55:12.288Z,10.25
2022-10-09T15:57:39.130Z,9.25
2022-10-09T16:00:06.734Z,9.85
2022-10-09T16:02:33.573Z,9.73
2022-10-09T16:05:00.412Z,8.77
2022-10-09T16:07:27.311Z,11.55
2022-10-09T16:09:54.151Z,7.25
2022-10-09T16:12:21.118Z,9.57
2022-10-09T16:14:47.983Z,8.48
2022-10-09T16:17:14.833Z,9.77
2022-10-09T16:19:41.632Z,7.72
2022-10-09T16:22:08.490Z,9.27
2022-10-09T16:24:35.310Z,6.93
2022-10-09T16:27:02.135Z,8.70
2022-10-09T16:29:30.050Z,8.40
2022-10-09T16:31:56.891Z,10.88
2022-10-09T16:34:23.813Z,8.07
2022-10-09T16:36:50.690Z,7.05
2022-10-09T16:39:17.985Z,6.55
2022-10-09T16:41:44.888Z,8.13
2022-10-09T16:44:13.233Z,7.10
2022-10-09T16:46:40.133Z,6.88
2022-10-09T16:49:07.033Z,9.38
2022-10-09T16:51:35.256Z,7.00
2022-10-09T16:54:02.928Z,7.23
2022-10-09T16:56:33.132Z,7.35
2022-10-09T16:59:01.610Z,10.60
2022-10-09T17:01:28.577Z,7.25
2022-10-09T17:03:57.119Z,9.43
2022-10-09T17:06:24.079Z,9.20
2022-10-09T17:08:51.776Z,10.05
2022-10-09T17:11:18.772Z,10.00
2022-10-09T17:13:45.588Z,8.80
2022-10-09T17:16:18.487Z,9.43
2022-10-09T17:18:46.370Z,8.63
2022-10-09T17:21:13.336Z,10.07
2022-10-09T17:23:40.257Z,10.77
2022-10-09T17:26:08.672Z,11.25
2022-10-09T17:28:35.854Z,10.63
2022-10-09T17:31:06.490Z,12.07
2022-10-09T17:33:33.768Z,11.82
2022-10-09T17:36:01.916Z,10.32
2022-10-09T17:38:28.792Z,12.80
2022-10-09T17:40:55.634Z,12.63
2022-10-09T17:43:22.599Z,12.07
2022-10-09T17:45:49.571Z,11.52
2022-10-09T17:48:16.392Z,12.82
2022-10-09T17:50:53.471Z,11.57
2022-10-09T17:53:22.690Z,12.15
2022-10-09T17:55:50.613Z,11.67
2022-10-09T17:58:17.838Z,12.40
2022-10-09T18:00:44.949Z,12.05
2022-10-09T18:03:11.930Z,12.95
2022-10-09T18:05:42.593Z,13.07
2022-10-09T18:08:09.472Z,13.33
2022-10-09T18:10:39.249Z,15.80
2022-10-09T18:13:07.053Z,14.38
2022-10-09T18:15:41.132Z,14.98
2022-10-09T18:18:08.051Z,12.52
2022-10-09T18:20:35.710Z,15.63
2022-10-09T18:23:02.917Z,15.52
2022-10-09T18:25:29.774Z,14.88
2022-10-09T18:27:56.651Z,15.50
2022-10-09T18:30:23.751Z,17.67
2022-10-09T18:32:51.003Z,17.03
2022-10-09T18:35:18.338Z,15.10
2022-10-09T18:37:45.155Z,16.42
2022-10-09T18:40:13.470Z,14.55
2022-10-09T18:42:40.313Z,15.43
2022-10-09T18:45:08.075Z,17.50
2022-10-09T18:47:34.932Z,18.10
2022-10-09T18:50:03.049Z,18.88
2022-10-09T18:52:30.138Z,21.83
2022-10-09T18:54:57.033Z,15.65
2022-10-09T18:57:24.680Z,16.77
2022-10-09T18:59:51.750Z,15.23
2022-10-09T19:02:20.152Z,22.02
2022-10-09T19:04:47.013Z,19.15
2022-10-09T19:07:13.937Z,19.77
2022-10-09T19:09:40.856Z,16.23
2022-10-09T19:12:07.703Z,18.20
2022-10-09T19:14:35.671Z,17.88
2022-10-09T19:17:02.492Z,18.42
2022-10-09T19:19:29.948Z,18.50
2022-10-09T19:21:58.695Z,18.40
2022-10-09T19:24:25.578Z,19.05
2022-10-09T19:26:52.389Z,21.58
2022-10-09T19:29:19.231Z,21.60
2022-10-09T19:31:46.093Z,21.88
2022-10-09T19:34:12.970Z,18.10
2022-10-09T19:36:39.875Z,19.52
2022-10-09T19:39:09.978Z,21.48
2022-10-09T19:41:37.928Z,18.88
2022-10-09T19:44:04.773Z,17.98
2022-10-09T19:46:31.650Z,19.47
2022-10-09T19:48:58.535Z,23.48
2022-10-09T19:51:26.553Z,19.77
2022-10-09T19:53:54.839Z,18.65
2022-10-09T19:56:25.054Z,20.00
2022-10-09T19:58:52.372Z,21.00
2022-10-09T20:01:21.570Z,20.70
2022-10-09T20:03:48.790Z,17.88
2022-10-09T20:06:15.656Z,19.05
2022-10-09T20:08:42.639Z,19.55
2022-10-09T20:11:11.526Z,20.27
2022-10-09T20:13:38.948Z,19.08
2022-10-09T20:16:07.828Z,20.13
2022-10-09T20:18:34.914Z,19.55
2022-10-09T20:21:01.792Z,18.88
2022-10-09T20:23:28.673Z,19.60
2022-10-09T20:26:02.696Z,19.33
2022-10-09T20:28:31.957Z,19.13
2022-10-09T20:30:59.477Z,20.20
2022-10-09T20:33:26.514Z,22.77
2022-10-09T20:35:53.449Z,23.43
2022-10-09T20:38:25.420Z,18.58
2022-10-09T20:40:52.728Z,20.45
2022-10-09T20:43:19.615Z,19.88
2022-10-09T20:45:46.557Z,20.45
2022-10-09T20:48:13.430Z,24.87
2022-10-09T20:50:41.329Z,18.40
2022-10-09T20:53:09.954Z,21.88
2022-10-09T20:55:36.822Z,20.65
2022-10-09T20:58:03.768Z,19.33
2022-10-09T21:00:30.663Z,21.37
2022-10-09T21:02:57.659Z,18.88
2022-10-09T21:05:24.495Z,17.95
2022-10-09T21:07:51.489Z,17.40
2022-10-09T21:10:18.339Z,18.00
2022-10-09T21:12:45.174Z,19.80
2022-10-09T21:15:12.031Z,20.02
2022-10-09T21:17:38.894Z,21.27
2022-10-09T21:20:06.090Z,19.25
2022-10-09T21:22:32.950Z,20.27
2022-10-09T21:24:59.851Z,16.40
2022-10-09T21:27:26.710Z,19.95
2022-10-09T21:29:53.549Z,19.13
2022-10-09T21:32:20.376Z,17.98
2022-10-09T21:34:47.329Z,19.67
2022-10-09T21:37:21.586Z,20.50
2022-10-09T21:39:48.934Z,17.60
2022-10-09T21:42:15.790Z,18.45
2022-10-09T21:44:42.636Z,17.67
2022-10-09T21:47:21.175Z,17.65
2022-10-09T21:49:48.078Z,17.73
2022-10-09T21:52:14.914Z,17.35
2022-10-09T21:54:41.729Z,20.38
2022-10-09T21:57:08.619Z,17.92
2022-10-09T21:59:35.541Z,18.15
2022-10-09T22:02:03.128Z,17.27
2022-10-09T22:04:29.909Z,17.35
2022-10-09T22:06:56.748Z,17.25
2022-10-09T22:09:23.590Z,15.45
2022-10-09T22:11:50.494Z,17.33
2022-10-09T22:14:17.311Z,19.00
2022-10-09T22:16:44.306Z,18.25
2022-10-09T22:19:11.168Z,18.02
2022-10-09T22:21:37.998Z,16.67
2022-10-09T22:24:04.937Z,15.13
2022-10-09T22:26:32.013Z,16.43
2022-10-09T22:28:58.974Z,16.75
2022-10-09T22:31:26.618Z,16.17
2022-10-09T22:33:54.991Z,16.23
2022-10-09T22:36:24.075Z,16.55
2022-10-09T22:38:53.930Z,15.77
2022-10-09T22:41:21.211Z,15.45
2022-10-09T22:43:50.013Z,15.45
2022-10-09T22:46:19.163Z,18.10
2022-10-09T22:48:46.050Z,16.42
2022-10-09T22:51:14.609Z,16.90
2022-10-09T22:53:42.030Z,17.40
2022-10-09T22:56:11.628Z,16.85
2022-10-09T22:58:38.490Z,16.70
2022-10-09T23:01:11.547Z,15.38
2022-10-09T23:03:38.428Z,16.67
2022-10-09T23:06:08.747Z,13.68
2022-10-09T23:08:36.889Z,16.98
2022-10-09T23:11:03.670Z,13.75
2022-10-09T23:13:30.569Z,16.63
2022-10-09T23:16:00.108Z,14.30
2022-10-09T23:18:27.370Z,15.63
2022-10-09T23:20:54.231Z,16.48
2022-10-09T23:23:21.070Z,14.25
2022-10-09T23:25:47.928Z,18.77
2022-10-09T23:28:14.807Z,15.47
2022-10-09T23:30:41.655Z,12.55
2022-10-09T23:33:08.512Z,17.20
2022-10-09T23:35:40.634Z,15.00
2022-10-09T23:38:07.610Z,13.13
2022-10-09T23:40:34.488Z,15.83
2022-10-09T23:43:01.411Z,14.52
2022-10-09T23:45:28.271Z,13.80
2022-10-09T23:47:55.130Z,13.95
2022-10-09T23:50:21.974Z,13.77
2022-10-09T23:52:49.072Z,12.43
2022-10-09T23:55:16.128Z,13.20
2022-10-09T23:57:42.971Z,13.48
